createdAt,value
2019-03-10T00:01:34.209Z,85.36
2019-03-10T00:04:00.013Z,84.87
2019-03-10T00:06:25.796Z,84.63
2019-03-10T00:08:51.593Z,84.32
2019-03-10T00:11:17.370Z,84.34
2019-03-10T00:13:43.165Z,83.83
2019-03-10T00:16:08.948Z,83.82
2019-03-10T00:18:34.757Z,83.35
2019-03-10T00:21:00.551Z,83.18
2019-03-10T00:23:26.364Z,83.12
2019-03-10T00:25:52.160Z,83.06
2019-03-10T00:28:18.240Z,83.12
2019-03-10T00:30:44.439Z,82.95
2019-03-10T00:33:10.201Z,83.13
2019-03-10T00:35:36.001Z,83.03
2019-03-10T00:38:01.790Z,82.96
2019-03-10T00:40:49.764Z,82.22
2019-03-10T00:43:53.219Z,81.97
2019-03-10T00:46:52.045Z,81.56
2019-03-10T00:49:27.736Z,81.49
2019-03-10T00:52:08.904Z,80.87
2019-03-10T00:54:34.700Z,81.23
2019-03-10T00:57:00.591Z,80.69
2019-03-10T00:59:26.499Z,80.58
2019-03-10T01:01:52.270Z,81.12
2019-03-10T01:04:18.154Z,81.44
2019-03-10T01:06:44.057Z,81.75
2019-03-10T01:09:09.831Z,81.75
2019-03-10T01:11:35.620Z,82.10
2019-03-10T01:14:01.394Z,82.24
2019-03-10T01:16:27.484Z,82.07
2019-03-10T01:18:53.667Z,82.51
2019-03-10T01:21:20.374Z,82.80
2019-03-10T01:23:46.153Z,82.41
2019-03-10T01:26:12.053Z,81.87
2019-03-10T01:28:37.827Z,82.39
2019-03-10T01:31:31.661Z,82.41
2019-03-10T01:34:19.312Z,82.60
2019-03-10T01:36:45.155Z,82.44
2019-03-10T01:39:11.038Z,82.68
2019-03-10T01:41:36.846Z,82.80
2019-03-10T01:44:02.632Z,82.80
2019-03-10T01:46:28.420Z,82.25
2019-03-10T01:48:54.200Z,82.15
2019-03-10T01:51:20.118Z,81.89
2019-03-10T01:53:45.903Z,81.89
2019-03-10T01:56:11.681Z,82.31
2019-03-10T01:58:37.481Z,82.17
2019-03-10T02:01:03.252Z,81.96
2019-03-10T02:03:29.059Z,82.01
2019-03-10T02:05:54.840Z,82.01
2019-03-10T02:08:21.043Z,82.36
2019-03-10T02:10:46.818Z,82.29
2019-03-10T02:13:12.727Z,82.41
2019-03-10T02:15:38.517Z,82.60
2019-03-10T02:18:04.316Z,83.00
2019-03-10T02:20:30.109Z,82.79
2019-03-10T02:22:55.906Z,83.16
2019-03-10T02:25:21.691Z,83.06
2019-03-10T02:27:47.502Z,83.35
2019-03-10T02:30:15.167Z,83.90
2019-03-10T02:32:41.049Z,83.62
2019-03-10T02:35:06.828Z,84.28
2019-03-10T02:37:32.628Z,84.44
2019-03-10T02:39:58.417Z,84.88
2019-03-10T02:42:24.207Z,85.00
2019-03-10T02:44:49.993Z,85.22
2019-03-10T02:47:15.775Z,85.36
2019-03-10T02:49:41.566Z,85.53
2019-03-10T02:52:07.352Z,85.49
2019-03-10T02:54:33.142Z,85.50
2019-03-10T02:56:58.926Z,85.67
2019-03-10T02:59:24.721Z,85.54
2019-03-10T03:01:50.500Z,85.45
2019-03-10T03:04:16.318Z,85.43
2019-03-10T03:06:42.106Z,85.43
2019-03-10T03:09:07.999Z,85.09
2019-03-10T03:11:33.783Z,85.06
2019-03-10T03:13:59.568Z,85.21
2019-03-10T03:16:25.344Z,85.36
2019-03-10T03:18:51.156Z,85.14
2019-03-10T03:21:16.946Z,85.10
2019-03-10T03:23:42.741Z,85.29
2019-03-10T03:26:08.522Z,85.41
2019-03-10T03:28:34.324Z,85.24
2019-03-10T03:31:00.116Z,85.04
2019-03-10T03:33:25.915Z,85.00
2019-03-10T03:35:57.307Z,85.47
2019-03-10T03:38:41.862Z,85.32
2019-03-10T03:41:19.356Z,85.26
2019-03-10T03:43:45.157Z,85.44
2019-03-10T03:46:10.943Z,85.37
2019-03-10T03:48:36.732Z,85.46
2019-03-10T03:51:02.518Z,85.36
2019-03-10T03:53:28.343Z,85.23
2019-03-10T03:55:54.297Z,85.42
2019-03-10T03:58:20.102Z,85.34
2019-03-10T04:00:47.768Z,85.56
2019-03-10T04:03:13.553Z,85.46
2019-03-10T04:05:39.341Z,85.46
2019-03-10T04:08:05.118Z,85.46
2019-03-10T04:10:30.930Z,85.62
2019-03-10T04:12:56.705Z,85.42
2019-03-10T04:15:22.507Z,85.30
2019-03-10T04:17:48.296Z,85.34
2019-03-10T04:20:14.089Z,85.33
2019-03-10T04:22:39.861Z,85.36
2019-03-10T04:25:06.466Z,85.82
2019-03-10T04:27:32.257Z,85.68
2019-03-10T04:29:58.045Z,85.86
2019-03-10T04:32:23.834Z,85.65
2019-03-10T04:34:49.622Z,85.72
2019-03-10T04:37:15.399Z,85.87
2019-03-10T04:39:41.195Z,86.00
2019-03-10T04:42:06.973Z,85.86
2019-03-10T04:44:32.778Z,85.99
2019-03-10T04:46:58.556Z,86.39
2019-03-10T04:49:24.370Z,86.66
2019-03-10T04:51:50.148Z,86.66
2019-03-10T04:54:17.843Z,86.29
2019-03-10T04:56:45.553Z,86.57
2019-03-10T04:59:11.334Z,86.37
2019-03-10T05:01:37.117Z,86.45
2019-03-10T05:04:02.896Z,86.60
2019-03-10T05:06:28.688Z,87.00
2019-03-10T05:08:54.463Z,86.86
2019-03-10T05:11:20.259Z,86.76
2019-03-10T05:13:46.032Z,86.87
2019-03-10T05:16:11.836Z,86.85
2019-03-10T05:18:37.611Z,87.12
2019-03-10T05:21:03.416Z,87.24
2019-03-10T05:23:34.536Z,87.47
2019-03-10T05:26:00.737Z,87.55
2019-03-10T05:28:28.614Z,87.72
2019-03-10T05:30:54.408Z,87.62
2019-03-10T05:33:20.219Z,87.29
2019-03-10T05:35:46.016Z,87.79
2019-03-10T05:38:11.796Z,87.64
2019-03-10T05:40:37.619Z,88.01
2019-03-10T05:43:03.405Z,87.96
2019-03-10T05:45:29.218Z,87.69
2019-03-10T05:47:54.978Z,87.87
2019-03-10T05:50:20.772Z,87.92
2019-03-10T05:52:46.546Z,88.13
2019-03-10T05:55:12.344Z,88.71
2019-03-10T05:57:38.120Z,88.48
2019-03-10T06:00:07.638Z,88.52
2019-03-10T06:02:33.427Z,88.62
2019-03-10T06:04:59.371Z,88.54
2019-03-10T06:07:25.163Z,88.86
2019-03-10T06:09:50.940Z,88.68
2019-03-10T06:12:16.737Z,88.58
2019-03-10T06:14:42.520Z,88.76
2019-03-10T06:17:08.313Z,88.55
2019-03-10T06:19:34.094Z,88.59
2019-03-10T06:21:59.899Z,88.56
2019-03-10T06:24:25.671Z,88.66
2019-03-10T06:26:51.480Z,88.75
2019-03-10T06:29:17.258Z,88.66
2019-03-10T06:31:43.048Z,88.90
2019-03-10T06:34:08.823Z,88.98
2019-03-10T06:36:34.620Z,89.19
2019-03-10T06:39:00.396Z,89.24
2019-03-10T06:41:26.212Z,89.73
2019-03-10T06:43:51.984Z,89.73
2019-03-10T06:46:17.793Z,89.62
2019-03-10T06:48:43.571Z,89.60
2019-03-10T06:51:09.356Z,89.73
2019-03-10T06:53:35.130Z,89.84
2019-03-10T06:56:00.929Z,90.28
2019-03-10T06:58:26.723Z,90.12
2019-03-10T07:00:52.523Z,90.43
2019-03-10T07:03:18.291Z,90.29
2019-03-10T07:05:44.079Z,90.32
2019-03-10T07:08:09.880Z,90.44
2019-03-10T07:10:35.660Z,90.41
2019-03-10T07:13:01.461Z,90.29
2019-03-10T07:15:27.233Z,90.34
2019-03-10T07:17:53.124Z,90.42
2019-03-10T07:20:19.210Z,90.17
2019-03-10T07:22:45.005Z,90.27
2019-03-10T07:25:10.791Z,90.35
2019-03-10T07:27:38.497Z,89.71
2019-03-10T07:30:09.287Z,89.51
2019-03-10T07:32:42.868Z,89.54
2019-03-10T07:35:10.561Z,89.30
2019-03-10T07:37:41.025Z,89.32
2019-03-10T07:40:11.271Z,89.08
2019-03-10T07:42:41.729Z,88.75
2019-03-10T07:45:15.232Z,88.04
2019-03-10T07:47:42.937Z,87.98
2019-03-10T07:50:28.489Z,88.30
2019-03-10T07:52:56.185Z,88.14
2019-03-10T07:55:29.515Z,88.36
2019-03-10T07:58:13.797Z,87.97
2019-03-10T08:00:53.454Z,87.49
2019-03-10T08:03:30.005Z,85.83
2019-03-10T08:05:57.691Z,85.59
2019-03-10T08:08:25.395Z,86.18
2019-03-10T08:11:02.062Z,85.38
2019-03-10T08:13:46.413Z,86.43
2019-03-10T08:16:30.740Z,85.22
2019-03-10T08:18:58.429Z,84.78
2019-03-10T08:21:28.664Z,84.02
2019-03-10T08:23:56.370Z,83.78
2019-03-10T08:26:26.572Z,84.06
2019-03-10T08:28:54.278Z,84.79
2019-03-10T08:31:21.963Z,84.80
2019-03-10T08:34:04.485Z,84.03
2019-03-10T08:36:41.036Z,82.83
2019-03-10T08:39:25.031Z,82.72
2019-03-10T08:42:04.637Z,82.46
2019-03-10T08:44:50.247Z,83.29
2019-03-10T08:47:17.932Z,81.74
2019-03-10T08:49:51.195Z,81.32
2019-03-10T08:52:24.499Z,81.46
2019-03-10T08:54:57.831Z,80.97
2019-03-10T08:57:40.670Z,80.28
2019-03-10T09:00:16.983Z,80.10
2019-03-10T09:03:03.048Z,79.19
2019-03-10T09:05:39.751Z,79.65
2019-03-10T09:08:07.497Z,77.96
2019-03-10T09:10:41.076Z,77.70
2019-03-10T09:13:11.401Z,77.70
2019-03-10T09:15:41.048Z,76.54
2019-03-10T09:18:23.892Z,78.09
2019-03-10T09:20:51.604Z,78.09
2019-03-10T09:23:21.211Z,75.47
2019-03-10T09:25:51.909Z,75.82
2019-03-10T09:28:28.405Z,75.26
2019-03-10T09:31:05.201Z,73.91
2019-03-10T09:33:32.925Z,74.42
2019-03-10T09:36:00.619Z,74.42
2019-03-10T09:38:28.321Z,74.26
2019-03-10T09:40:58.997Z,73.78
2019-03-10T09:43:29.448Z,73.94
2019-03-10T09:46:06.020Z,73.94
2019-03-10T09:48:39.256Z,71.97
2019-03-10T09:51:06.968Z,71.81
2019-03-10T09:53:43.395Z,70.20
2019-03-10T09:56:11.094Z,70.20
2019-03-10T09:58:47.590Z,72.05
2019-03-10T10:01:15.296Z,72.05
2019-03-10T10:03:45.772Z,73.28
2019-03-10T10:06:13.487Z,73.28
2019-03-10T10:08:46.756Z,72.97
2019-03-10T10:11:23.030Z,74.52
2019-03-10T10:13:56.465Z,74.52
2019-03-10T10:16:29.739Z,74.23
2019-03-10T10:19:03.410Z,74.23
2019-03-10T10:21:33.968Z,73.85
2019-03-10T10:24:04.156Z,71.91
2019-03-10T10:26:37.745Z,71.93
2019-03-10T10:29:08.413Z,71.06
2019-03-10T10:31:38.676Z,71.04
2019-03-10T10:34:23.295Z,67.45
2019-03-10T10:36:50.990Z,67.45
2019-03-10T10:39:21.752Z,65.95
2019-03-10T10:41:58.478Z,66.33
2019-03-10T10:44:26.174Z,66.33
2019-03-10T10:46:56.693Z,67.38
2019-03-10T10:49:27.120Z,68.49
2019-03-10T10:51:57.616Z,68.49
2019-03-10T10:54:25.441Z,68.26
2019-03-10T10:56:53.109Z,67.12
2019-03-10T10:59:20.804Z,68.34
2019-03-10T11:01:48.550Z,67.55
2019-03-10T11:04:21.884Z,65.11
2019-03-10T11:06:49.660Z,65.65
2019-03-10T11:09:20.437Z,64.92
2019-03-10T11:11:54.096Z,63.30
2019-03-10T11:14:38.347Z,62.98
2019-03-10T11:17:08.866Z,61.84
2019-03-10T11:19:36.648Z,61.97
2019-03-10T11:22:06.883Z,63.75
2019-03-10T11:24:34.643Z,63.06
2019-03-10T11:27:02.681Z,61.07
2019-03-10T11:29:46.937Z,60.30
2019-03-10T11:32:29.741Z,61.80
2019-03-10T11:35:15.427Z,60.43
2019-03-10T11:37:43.131Z,61.52
2019-03-10T11:40:29.323Z,61.34
2019-03-10T11:42:57.073Z,61.87
2019-03-10T11:45:41.534Z,60.77
2019-03-10T11:48:18.008Z,61.21
2019-03-10T11:50:54.772Z,62.20
2019-03-10T11:53:25.858Z,61.84
2019-03-10T11:55:53.627Z,60.78
2019-03-10T11:58:21.343Z,60.25
2019-03-10T12:00:51.868Z,59.96
2019-03-10T12:03:36.016Z,59.43
2019-03-10T12:06:03.711Z,59.45
2019-03-10T12:08:46.248Z,61.17
2019-03-10T12:11:12.037Z,58.97
2019-03-10T12:13:37.823Z,59.02
2019-03-10T12:16:03.705Z,60.01
2019-03-10T12:18:29.500Z,60.20
2019-03-10T12:20:55.300Z,59.73
2019-03-10T12:23:21.197Z,59.44
2019-03-10T12:25:47.034Z,60.06
2019-03-10T12:28:12.923Z,60.46
2019-03-10T12:30:38.827Z,60.18
2019-03-10T12:33:04.630Z,60.76
2019-03-10T12:35:34.388Z,59.82
2019-03-10T12:37:58.249Z,59.63
2019-03-10T12:40:24.062Z,58.71
2019-03-10T12:42:49.968Z,58.77
2019-03-10T12:45:15.996Z,59.61
2019-03-10T12:47:41.800Z,56.62
2019-03-10T12:50:10.946Z,57.11
2019-03-10T12:52:36.760Z,55.00
2019-03-10T12:55:05.486Z,55.00
2019-03-10T12:57:31.313Z,55.98
2019-03-10T12:59:57.108Z,56.90
2019-03-10T13:02:22.890Z,55.02
2019-03-10T13:04:48.699Z,55.80
2019-03-10T13:07:14.519Z,56.02
2019-03-10T13:09:40.424Z,56.67
2019-03-10T13:12:06.239Z,57.18
2019-03-10T13:14:32.795Z,59.86
2019-03-10T13:16:58.705Z,62.78
2019-03-10T13:19:25.523Z,73.80
2019-03-10T13:21:51.479Z,73.80
2019-03-10T13:24:17.538Z,77.34
2019-03-10T13:26:43.468Z,78.87
2019-03-10T13:29:09.474Z,80.59
2019-03-10T13:31:35.448Z,81.42
2019-03-10T13:34:01.691Z,82.49
2019-03-10T13:36:27.776Z,82.67
2019-03-10T13:38:53.572Z,83.22
2019-03-10T13:41:19.633Z,83.10
2019-03-10T13:43:45.484Z,82.32
2019-03-10T13:46:11.286Z,80.99
2019-03-10T13:48:37.176Z,80.50
2019-03-10T13:51:03.130Z,79.60
2019-03-10T13:53:28.961Z,79.66
2019-03-10T13:55:54.753Z,78.14
2019-03-10T13:58:20.583Z,76.98
2019-03-10T14:00:46.430Z,76.91
2019-03-10T14:03:12.320Z,76.28
2019-03-10T14:05:38.324Z,74.92
2019-03-10T14:08:05.301Z,74.83
2019-03-10T14:10:31.118Z,74.33
2019-03-10T14:12:56.925Z,74.04
2019-03-10T14:15:22.721Z,72.83
2019-03-10T14:17:48.594Z,74.31
2019-03-10T14:20:15.416Z,74.23
2019-03-10T14:22:41.422Z,73.57
2019-03-10T14:25:09.864Z,74.13
2019-03-10T14:27:35.805Z,74.14
2019-03-10T14:30:02.085Z,73.52
2019-03-10T14:32:27.911Z,74.20
2019-03-10T14:34:56.276Z,74.30
2019-03-10T14:37:22.119Z,75.45
2019-03-10T14:39:48.022Z,75.45
2019-03-10T14:42:14.198Z,75.32
2019-03-10T14:44:40.215Z,75.77
2019-03-10T14:47:06.075Z,75.93
2019-03-10T14:49:31.936Z,76.54
2019-03-10T14:51:58.397Z,76.42
2019-03-10T14:54:24.325Z,76.54
2019-03-10T14:56:50.279Z,76.77
2019-03-10T14:59:16.159Z,76.14
2019-03-10T15:01:42.158Z,75.36
2019-03-10T15:04:08.119Z,74.84
2019-03-10T15:06:34.054Z,74.84
2019-03-10T15:09:02.959Z,74.19
2019-03-10T15:11:28.988Z,74.61
2019-03-10T15:13:55.073Z,74.54
2019-03-10T15:16:20.859Z,74.44
2019-03-10T15:18:46.659Z,74.54
2019-03-10T15:21:12.447Z,74.48
2019-03-10T15:23:40.308Z,74.65
2019-03-10T15:26:05.925Z,74.99
2019-03-10T15:28:31.726Z,75.15
2019-03-10T15:30:57.510Z,75.29
2019-03-10T15:33:23.304Z,75.34
2019-03-10T15:35:49.080Z,75.47
2019-03-10T15:38:14.878Z,75.13
2019-03-10T15:40:40.656Z,75.54
2019-03-10T15:43:06.477Z,75.31
2019-03-10T15:45:32.260Z,75.34
2019-03-10T15:47:58.175Z,75.44
2019-03-10T15:50:26.858Z,75.63
2019-03-10T15:52:52.674Z,75.82
2019-03-10T15:55:18.446Z,76.03
2019-03-10T15:57:50.163Z,76.27
2019-03-10T16:00:20.604Z,76.40
2019-03-10T16:02:46.380Z,76.29
2019-03-10T16:05:12.276Z,76.49
2019-03-10T16:07:38.058Z,76.60
2019-03-10T16:10:06.762Z,76.52
2019-03-10T16:12:32.548Z,76.35
2019-03-10T16:14:58.431Z,76.39
2019-03-10T16:17:24.206Z,76.38
2019-03-10T16:19:50.020Z,76.02
2019-03-10T16:22:15.804Z,75.51
2019-03-10T16:24:41.611Z,75.50
2019-03-10T16:27:07.394Z,75.36
2019-03-10T16:29:33.198Z,75.78
2019-03-10T16:31:58.978Z,76.31
2019-03-10T16:34:24.774Z,76.15
2019-03-10T16:36:50.676Z,75.92
2019-03-10T16:39:16.466Z,76.01
2019-03-10T16:41:42.251Z,76.25
2019-03-10T16:44:08.042Z,76.09
2019-03-10T16:46:33.865Z,76.01
2019-03-10T16:48:59.645Z,75.96
2019-03-10T16:51:25.443Z,76.02
2019-03-10T16:53:51.219Z,75.84
2019-03-10T16:56:18.918Z,76.02
2019-03-10T16:58:44.696Z,76.13
2019-03-10T17:01:10.496Z,76.31
2019-03-10T17:03:36.271Z,76.31
2019-03-10T17:06:02.067Z,76.69
2019-03-10T17:08:27.843Z,76.82
2019-03-10T17:10:53.632Z,77.06
2019-03-10T17:13:22.446Z,77.14
2019-03-10T17:15:48.340Z,77.33
2019-03-10T17:18:14.133Z,77.61
2019-03-10T17:20:39.945Z,77.81
2019-03-10T17:23:05.724Z,77.99
2019-03-10T17:25:31.511Z,78.20
2019-03-10T17:27:57.290Z,78.61
2019-03-10T17:30:24.278Z,78.83
2019-03-10T17:32:50.171Z,78.79
2019-03-10T17:35:16.758Z,78.91
2019-03-10T17:37:44.204Z,78.95
2019-03-10T17:40:12.307Z,78.97
2019-03-10T17:42:38.172Z,79.01
2019-03-10T17:45:07.553Z,78.98
2019-03-10T17:47:35.817Z,78.74
2019-03-10T17:50:02.723Z,78.42
2019-03-10T17:52:28.597Z,78.06
2019-03-10T17:54:54.438Z,77.87
2019-03-10T17:57:20.321Z,77.94
2019-03-10T17:59:46.219Z,77.98
2019-03-10T18:02:11.995Z,77.94
2019-03-10T18:04:37.780Z,78.12
2019-03-10T18:07:03.838Z,78.22
2019-03-10T18:09:29.625Z,78.19
2019-03-10T18:11:56.540Z,78.04
2019-03-10T18:14:22.715Z,78.36
2019-03-10T18:16:48.517Z,78.58
2019-03-10T18:19:14.290Z,78.72
2019-03-10T18:21:40.089Z,78.93
2019-03-10T18:24:05.878Z,79.01
2019-03-10T18:26:31.647Z,78.81
2019-03-10T18:28:57.447Z,78.76
2019-03-10T18:31:23.227Z,79.21
2019-03-10T18:33:49.017Z,79.09
2019-03-10T18:36:14.796Z,79.49
2019-03-10T18:38:40.586Z,79.33
2019-03-10T18:41:06.366Z,79.51
2019-03-10T18:43:32.159Z,79.57
2019-03-10T18:45:57.937Z,79.68
2019-03-10T18:48:23.727Z,79.82
2019-03-10T18:50:49.509Z,79.87
2019-03-10T18:53:16.121Z,80.07
2019-03-10T18:55:42.189Z,80.33
2019-03-10T18:58:08.120Z,80.50
2019-03-10T19:00:34.309Z,80.82
2019-03-10T19:03:00.093Z,81.03
2019-03-10T19:05:25.872Z,80.96
2019-03-10T19:07:51.668Z,80.70
2019-03-10T19:10:17.449Z,80.61
2019-03-10T19:12:43.324Z,80.61
2019-03-10T19:15:11.644Z,80.66
2019-03-10T19:17:37.424Z,80.66
2019-03-10T19:20:06.925Z,80.67
2019-03-10T19:22:32.719Z,80.79
2019-03-10T19:24:58.509Z,80.65
2019-03-10T19:27:30.229Z,81.24
2019-03-10T19:29:51.996Z,81.72
2019-03-10T19:32:17.771Z,81.65
2019-03-10T19:34:43.591Z,82.17
2019-03-10T19:37:09.384Z,82.17
2019-03-10T19:39:35.177Z,82.40
2019-03-10T19:42:00.962Z,82.94
2019-03-10T19:44:26.754Z,82.90
2019-03-10T19:46:52.535Z,83.25
2019-03-10T19:49:18.326Z,83.74
2019-03-10T19:51:44.108Z,83.76
2019-03-10T19:54:09.902Z,84.29
2019-03-10T19:56:35.679Z,84.39
2019-03-10T19:59:01.479Z,84.25
2019-03-10T20:01:27.256Z,84.25
2019-03-10T20:03:53.075Z,84.19
2019-03-10T20:06:18.852Z,84.13
2019-03-10T20:08:44.651Z,84.21
2019-03-10T20:11:10.449Z,84.21
2019-03-10T20:13:36.228Z,84.51
2019-03-10T20:16:02.020Z,84.38
2019-03-10T20:18:27.812Z,84.46
2019-03-10T20:20:53.610Z,84.41
2019-03-10T20:23:19.395Z,84.46
2019-03-10T20:25:45.187Z,84.25
2019-03-10T20:28:10.964Z,84.09
2019-03-10T20:30:36.764Z,83.50
2019-03-10T20:33:02.549Z,83.50
2019-03-10T20:35:28.339Z,83.36
2019-03-10T20:37:54.135Z,83.21
2019-03-10T20:40:24.435Z,83.18
2019-03-10T20:42:50.230Z,83.24
2019-03-10T20:45:16.419Z,83.23
2019-03-10T20:47:42.244Z,83.22
2019-03-10T20:50:13.382Z,83.14
2019-03-10T20:52:39.166Z,83.21
2019-03-10T20:55:07.082Z,83.29
2019-03-10T20:57:32.869Z,83.64
2019-03-10T21:00:00.738Z,83.78
2019-03-10T21:02:26.344Z,83.72
2019-03-10T21:04:52.125Z,84.00
2019-03-10T21:07:17.918Z,83.96
2019-03-10T21:09:43.692Z,84.08
2019-03-10T21:12:09.482Z,84.30
2019-03-10T21:14:35.258Z,84.39
2019-03-10T21:17:01.060Z,84.45
2019-03-10T21:19:26.843Z,84.67
2019-03-10T21:21:52.642Z,84.59
2019-03-10T21:24:18.420Z,84.61
2019-03-10T21:26:44.214Z,84.67
2019-03-10T21:29:09.998Z,84.68
2019-03-10T21:31:35.795Z,84.67
2019-03-10T21:34:01.576Z,84.83
2019-03-10T21:36:27.371Z,84.74
2019-03-10T21:38:53.154Z,84.83
2019-03-10T21:41:18.949Z,84.95
2019-03-10T21:43:44.761Z,84.95
2019-03-10T21:46:10.519Z,85.11
2019-03-10T21:48:36.300Z,84.87
2019-03-10T21:51:02.075Z,84.65
2019-03-10T21:53:27.891Z,84.86
2019-03-10T21:55:53.674Z,85.18
2019-03-10T21:58:19.468Z,85.04
2019-03-10T22:00:45.247Z,85.05
2019-03-10T22:03:11.039Z,85.35
2019-03-10T22:05:36.818Z,85.68
2019-03-10T22:08:02.608Z,85.39
2019-03-10T22:10:28.388Z,85.56
2019-03-10T22:12:54.179Z,85.39
2019-03-10T22:15:19.959Z,85.32
2019-03-10T22:17:45.778Z,85.61
2019-03-10T22:20:14.166Z,85.61
2019-03-10T22:22:48.192Z,85.07
2019-03-10T22:25:12.868Z,85.36
2019-03-10T22:27:36.068Z,85.54
2019-03-10T22:30:03.268Z,85.68
2019-03-10T22:32:29.059Z,85.56
2019-03-10T22:34:54.851Z,85.47
2019-03-10T22:37:20.626Z,85.39
2019-03-10T22:39:46.436Z,85.13
2019-03-10T22:42:12.215Z,85.30
2019-03-10T22:44:38.005Z,85.41
2019-03-10T22:47:03.776Z,85.29
2019-03-10T22:49:29.563Z,85.66
2019-03-10T22:51:55.344Z,85.64
2019-03-10T22:54:21.137Z,85.41
2019-03-10T22:56:46.908Z,85.43
2019-03-10T22:59:12.708Z,85.40
2019-03-10T23:01:38.484Z,85.41
2019-03-10T23:04:04.299Z,85.81
2019-03-10T23:06:30.084Z,85.81
2019-03-10T23:08:55.870Z,85.70
2019-03-10T23:11:21.643Z,85.70
2019-03-10T23:13:47.464Z,85.49
2019-03-10T23:16:13.248Z,85.46
2019-03-10T23:18:39.027Z,85.43
2019-03-10T23:21:04.924Z,85.25
2019-03-10T23:23:30.701Z,85.39
2019-03-10T23:25:56.501Z,85.81
2019-03-10T23:28:22.474Z,85.87
2019-03-10T23:30:48.278Z,85.96
2019-03-10T23:33:14.044Z,86.17
2019-03-10T23:35:39.840Z,86.09
2019-03-10T23:38:05.622Z,86.54
2019-03-10T23:40:31.410Z,86.48
2019-03-10T23:42:57.189Z,86.45
2019-03-10T23:45:22.983Z,87.06
2019-03-10T23:47:48.767Z,87.00
2019-03-10T23:50:17.902Z,86.94
2019-03-10T23:52:43.687Z,87.17
2019-03-10T23:55:10.778Z,87.22
2019-03-10T23:57:36.564Z,87.67
